createdAt,value
2018-04-25T00:01:20.547Z,13.60
2018-04-25T00:03:55.242Z,11.83
2018-04-25T00:06:29.814Z,13.90
2018-04-25T00:09:03.566Z,11.43
2018-04-25T00:11:32.678Z,12.40
2018-04-25T00:14:07.143Z,11.57
2018-04-25T00:16:41.167Z,9.77
2018-04-25T00:19:15.915Z,10.93
2018-04-25T00:21:50.694Z,10.13
2018-04-25T00:24:25.512Z,11.30
2018-04-25T00:27:01.204Z,14.20
2018-04-25T00:29:35.808Z,10.67
2018-04-25T00:32:10.743Z,9.73
2018-04-25T00:34:45.274Z,17.67
2018-04-25T00:37:19.969Z,12.93
2018-04-25T00:39:54.547Z,12.13
2018-04-25T00:42:28.524Z,12.17
2018-04-25T00:45:02.374Z,10.40
2018-04-25T00:47:36.295Z,12.40
2018-04-25T00:50:10.247Z,14.10
2018-04-25T00:52:44.655Z,9.53
2018-04-25T00:55:18.622Z,11.03
2018-04-25T00:57:53.735Z,11.50
2018-04-25T01:00:28.611Z,8.77
2018-04-25T01:03:02.698Z,10.53
2018-04-25T01:05:36.716Z,14.13
2018-04-25T01:08:10.710Z,8.60
2018-04-25T01:10:45.338Z,10.37
2018-04-25T01:13:19.613Z,9.17
2018-04-25T01:15:53.606Z,9.80
2018-04-25T01:18:28.372Z,12.20
2018-04-25T01:21:02.445Z,8.20
2018-04-25T01:23:36.380Z,7.10
2018-04-25T01:26:10.266Z,8.17
2018-04-25T01:28:49.158Z,9.40
2018-04-25T01:31:28.985Z,8.77
2018-04-25T01:37:25.364Z,8.93
2018-04-25T01:40:00.111Z,10.93
2018-04-25T01:42:40.000Z,13.13
2018-04-25T01:45:25.403Z,16.20
2018-04-25T01:48:00.783Z,14.80
2018-04-25T01:50:37.700Z,21.50
2018-04-25T01:53:24.035Z,12.67
2018-04-25T01:56:10.507Z,10.03
2018-04-25T01:58:56.408Z,14.70
2018-04-25T02:01:30.032Z,11.13
2018-04-25T02:04:05.701Z,16.60
2018-04-25T02:06:41.169Z,17.13
2018-04-25T02:09:15.925Z,11.20
2018-04-25T02:11:50.814Z,13.90
2018-04-25T02:14:26.411Z,19.40
2018-04-25T02:17:01.166Z,16.43
2018-04-25T02:19:35.942Z,9.53
2018-04-25T02:22:10.574Z,10.43
2018-04-25T02:24:45.319Z,16.17
2018-04-25T02:27:20.069Z,11.27
2018-04-25T02:29:54.554Z,16.30
2018-04-25T02:32:29.170Z,13.80
2018-04-25T02:35:04.012Z,16.47
2018-04-25T02:37:38.546Z,14.47
2018-04-25T02:40:13.533Z,22.50
2018-04-25T02:42:48.202Z,13.20
2018-04-25T02:45:22.922Z,15.07
2018-04-25T02:47:57.634Z,19.03
2018-04-25T02:50:33.191Z,17.27
2018-04-25T02:53:08.121Z,13.13
2018-04-25T02:55:42.747Z,14.37
2018-04-25T02:58:17.400Z,14.90
2018-04-25T03:00:52.091Z,15.73
2018-04-25T03:03:26.924Z,12.90
2018-04-25T03:06:01.454Z,19.97
2018-04-25T03:08:36.201Z,15.00
2018-04-25T03:11:10.879Z,19.03
2018-04-25T03:13:45.810Z,28.50
2018-04-25T03:16:20.338Z,16.97
2018-04-25T03:18:54.997Z,16.73
2018-04-25T03:21:29.680Z,17.10
2018-04-25T03:24:04.549Z,20.50
2018-04-25T03:26:39.216Z,17.40
2018-04-25T03:29:14.590Z,19.50
2018-04-25T03:31:49.479Z,16.40
2018-04-25T03:34:24.194Z,17.33
2018-04-25T03:36:58.973Z,17.47
2018-04-25T03:39:33.833Z,15.00
2018-04-25T03:42:08.529Z,18.40
2018-04-25T03:44:44.129Z,19.87
2018-04-25T03:47:19.015Z,18.37
2018-04-25T03:49:53.631Z,26.10
2018-04-25T03:52:28.309Z,18.03
2018-04-25T03:55:03.463Z,18.70
2018-04-25T03:57:38.179Z,15.87
2018-04-25T04:00:13.542Z,16.20
2018-04-25T04:02:48.893Z,15.30
2018-04-25T04:05:23.434Z,16.07
2018-04-25T04:07:58.039Z,15.07
2018-04-25T04:10:32.719Z,13.90
2018-04-25T04:13:09.111Z,14.00
2018-04-25T04:15:43.771Z,18.30
2018-04-25T04:18:19.139Z,14.40
2018-04-25T04:20:53.848Z,15.73
2018-04-25T04:23:28.479Z,13.57
2018-04-25T04:26:04.022Z,13.00
2018-04-25T04:28:38.766Z,13.73
2018-04-25T04:31:07.735Z,11.07
2018-04-25T04:33:37.509Z,11.37
2018-04-25T04:36:06.723Z,9.30
2018-04-25T04:38:36.002Z,11.20
2018-04-25T04:41:06.686Z,8.33
2018-04-25T04:43:37.196Z,7.80
2018-04-25T04:46:06.349Z,9.10
2018-04-25T04:48:35.537Z,9.33
2018-04-25T04:51:04.760Z,10.70
2018-04-25T04:53:35.380Z,16.70
2018-04-25T04:56:04.838Z,9.53
2018-04-25T04:58:33.850Z,6.90
2018-04-25T05:01:03.210Z,10.43
2018-04-25T05:03:32.933Z,6.80
2018-04-25T05:06:02.093Z,9.80
2018-04-25T05:08:32.053Z,10.20
2018-04-25T05:11:01.943Z,7.73
2018-04-25T05:13:31.036Z,7.33
2018-04-25T05:16:01.944Z,10.87
2018-04-25T05:18:31.123Z,10.67
2018-04-25T05:21:00.347Z,11.03
2018-04-25T05:23:30.194Z,10.23
2018-04-25T05:25:59.921Z,10.50
2018-04-25T05:28:29.059Z,11.60
2018-04-25T05:30:58.227Z,10.87
2018-04-25T05:33:27.219Z,12.23
2018-04-25T05:35:56.346Z,13.33
2018-04-25T05:38:27.918Z,14.53
2018-04-25T05:40:56.978Z,21.60
2018-04-25T05:43:26.871Z,14.53
2018-04-25T05:45:56.741Z,14.20
2018-04-25T05:48:26.111Z,13.57
2018-04-25T05:50:56.597Z,12.43
2018-04-25T05:53:26.315Z,12.30
2018-04-25T05:56:00.908Z,14.30
2018-04-25T05:58:35.679Z,18.40
2018-04-25T06:01:10.999Z,9.77
2018-04-25T06:03:46.341Z,11.77
2018-04-25T06:06:21.046Z,9.53
2018-04-25T06:08:55.685Z,11.60
2018-04-25T06:11:30.204Z,14.10
2018-04-25T06:13:59.891Z,8.10
2018-04-25T06:16:34.627Z,8.80
2018-04-25T06:19:09.826Z,8.40
2018-04-25T06:21:39.691Z,9.60
2018-04-25T06:24:15.198Z,9.87
2018-04-25T06:26:50.240Z,9.93
2018-04-25T06:29:24.842Z,8.50
2018-04-25T06:32:00.037Z,12.43
2018-04-25T06:34:34.707Z,8.63
2018-04-25T06:37:09.308Z,10.23
2018-04-25T06:39:43.840Z,11.23
2018-04-25T06:42:12.897Z,8.50
2018-04-25T06:44:47.447Z,7.50
2018-04-25T06:47:23.100Z,8.60
2018-04-25T06:49:57.687Z,6.80
2018-04-25T06:52:32.788Z,3.67
2018-04-25T06:55:07.362Z,4.40
2018-04-25T06:57:42.020Z,4.10
2018-04-25T07:00:11.388Z,4.17
2018-04-25T07:02:40.519Z,3.57
2018-04-25T07:05:15.307Z,3.67
2018-04-25T07:07:49.878Z,6.20
2018-04-25T07:10:19.754Z,3.77
2018-04-25T07:12:49.010Z,4.30
2018-04-25T07:15:18.303Z,5.27
2018-04-25T07:17:47.227Z,5.40
2018-04-25T07:20:17.290Z,6.33
2018-04-25T07:22:46.366Z,6.90
2018-04-25T07:25:16.100Z,8.43
2018-04-25T07:27:45.300Z,10.63
2018-04-25T07:30:14.204Z,12.07
2018-04-25T07:32:43.294Z,14.50
2018-04-25T07:35:12.403Z,10.80
2018-04-25T07:37:41.462Z,11.27
2018-04-25T07:40:10.685Z,14.33
2018-04-25T07:42:39.730Z,11.50
2018-04-25T07:45:08.894Z,11.70
2018-04-25T07:47:42.443Z,10.53
2018-04-25T07:50:11.372Z,10.40
2018-04-25T07:52:41.282Z,11.73
2018-04-25T07:55:15.983Z,11.77
2018-04-25T07:57:50.651Z,9.33
2018-04-25T08:00:25.401Z,9.60
2018-04-25T08:02:59.950Z,10.17
2018-04-25T08:05:35.501Z,10.60
2018-04-25T08:08:10.069Z,9.07
2018-04-25T08:10:45.439Z,8.70
2018-04-25T08:13:25.748Z,10.90
2018-04-25T08:16:06.152Z,8.40
2018-04-25T08:18:46.520Z,8.60
2018-04-25T08:21:28.868Z,8.43
2018-04-25T08:23:57.933Z,8.70
2018-04-25T08:26:32.482Z,7.77
2018-04-25T08:29:07.153Z,8.77
2018-04-25T08:31:42.511Z,8.50
2018-04-25T08:34:17.412Z,11.10
2018-04-25T08:36:52.081Z,10.27
2018-04-25T08:39:26.653Z,9.17
2018-04-25T08:42:01.324Z,9.73
2018-04-25T08:44:36.678Z,9.47
2018-04-25T08:47:11.505Z,9.70
2018-04-25T08:49:46.221Z,12.10
2018-04-25T08:52:20.976Z,10.63
2018-04-25T08:54:55.502Z,12.30
2018-04-25T08:57:30.496Z,17.17
2018-04-25T09:00:05.191Z,15.80
2018-04-25T09:02:40.097Z,15.77
2018-04-25T09:05:14.619Z,12.50
2018-04-25T09:07:49.414Z,15.83
2018-04-25T09:10:24.031Z,14.67
2018-04-25T09:12:58.690Z,13.60
2018-04-25T09:15:33.308Z,11.13
2018-04-25T09:18:08.206Z,16.97
2018-04-25T09:20:42.876Z,16.57
2018-04-25T09:23:17.611Z,14.80
2018-04-25T09:25:52.324Z,12.83
2018-04-25T09:28:27.890Z,16.67
2018-04-25T09:31:02.373Z,12.17
2018-04-25T09:33:37.202Z,12.00
2018-04-25T09:36:12.003Z,12.23
2018-04-25T09:38:46.854Z,10.00
2018-04-25T09:41:22.279Z,10.50
2018-04-25T09:43:56.947Z,9.63
2018-04-25T09:46:31.678Z,8.47
2018-04-25T09:49:06.275Z,8.50
2018-04-25T09:51:41.614Z,10.57
2018-04-25T09:54:16.392Z,8.70
2018-04-25T09:56:45.321Z,9.20
2018-04-25T09:59:20.357Z,7.07
2018-04-25T10:02:00.295Z,8.43
2018-04-25T10:04:35.059Z,7.50
2018-04-25T10:07:09.685Z,7.27
2018-04-25T10:09:44.392Z,6.40
2018-04-25T10:12:19.002Z,6.97
2018-04-25T10:14:53.696Z,9.23
2018-04-25T10:17:23.586Z,7.20
2018-04-25T10:19:58.473Z,7.70
2018-04-25T10:22:33.417Z,7.60
2018-04-25T10:25:07.994Z,7.90
2018-04-25T10:27:42.647Z,8.57
2018-04-25T10:30:17.382Z,9.40
2018-04-25T10:32:51.990Z,8.30
2018-04-25T10:35:26.899Z,10.37
2018-04-25T10:38:02.169Z,9.07
2018-04-25T10:40:36.898Z,9.57
2018-04-25T10:43:11.776Z,11.30
2018-04-25T10:45:46.348Z,11.30
2018-04-25T10:48:20.962Z,10.07
2018-04-25T10:50:55.622Z,10.33
2018-04-25T10:53:30.270Z,9.60
2018-04-25T10:56:04.864Z,12.63
2018-04-25T10:58:39.595Z,10.23
2018-04-25T11:01:14.186Z,10.33
2018-04-25T11:03:48.838Z,11.20
2018-04-25T11:06:24.462Z,10.53
2018-04-25T11:08:59.155Z,11.17
2018-04-25T11:11:34.001Z,10.43
2018-04-25T11:14:08.600Z,13.43
2018-04-25T11:16:43.193Z,11.87
2018-04-25T11:19:17.868Z,11.60
2018-04-25T11:21:46.779Z,13.13
2018-04-25T11:24:21.431Z,12.00
2018-04-25T11:26:56.073Z,14.53
2018-04-25T11:29:31.241Z,13.20
2018-04-25T11:32:00.331Z,15.77
2018-04-25T11:34:35.253Z,12.10
2018-04-25T11:37:09.913Z,13.27
2018-04-25T11:39:45.544Z,12.47
2018-04-25T11:42:15.402Z,13.30
2018-04-25T11:44:50.086Z,13.30
2018-04-25T11:47:24.765Z,13.40
2018-04-25T11:49:59.279Z,15.83
2018-04-25T11:52:34.004Z,14.80
2018-04-25T11:55:08.546Z,19.00
2018-04-25T11:57:43.835Z,14.83
2018-04-25T12:00:18.597Z,14.90
2018-04-25T12:02:53.292Z,17.53
2018-04-25T12:05:28.148Z,21.57
2018-04-25T12:07:58.551Z,16.53
2018-04-25T12:10:33.229Z,14.53
2018-04-25T12:13:07.977Z,17.13
2018-04-25T12:15:43.669Z,14.17
2018-04-25T12:18:18.519Z,13.27
2018-04-25T12:20:53.095Z,14.07
2018-04-25T12:23:28.475Z,13.60
2018-04-25T12:25:58.283Z,12.67
2018-04-25T12:28:27.463Z,11.47
2018-04-25T12:30:56.600Z,12.63
2018-04-25T12:33:25.823Z,15.00
2018-04-25T12:35:54.781Z,12.00
2018-04-25T12:38:24.238Z,11.70
2018-04-25T12:40:54.174Z,10.50
2018-04-25T12:43:23.463Z,10.70
2018-04-25T12:45:53.244Z,12.30
2018-04-25T12:48:23.207Z,9.37
2018-04-25T12:50:52.328Z,11.47
2018-04-25T12:53:21.498Z,11.17
2018-04-25T12:55:50.749Z,15.57
2018-04-25T12:58:19.794Z,10.40
2018-04-25T13:00:48.690Z,11.20
2018-04-25T13:03:17.624Z,10.20
2018-04-25T13:05:47.487Z,13.23
2018-04-25T13:08:16.613Z,13.67
2018-04-25T13:10:47.041Z,10.53
2018-04-25T13:13:15.808Z,10.37
2018-04-25T13:15:45.038Z,9.50
2018-04-25T13:18:18.958Z,10.60
2018-04-25T13:20:47.689Z,10.13
2018-04-25T13:23:17.498Z,9.17
2018-04-25T13:25:47.593Z,8.97
2018-04-25T13:28:16.746Z,8.87
2018-04-25T13:30:45.754Z,10.43
2018-04-25T13:33:17.754Z,8.10
2018-04-25T13:35:48.404Z,10.00
2018-04-25T13:38:17.532Z,8.53
2018-04-25T13:40:46.517Z,8.70
2018-04-25T13:43:15.586Z,8.23
2018-04-25T13:45:46.230Z,7.40
2018-04-25T13:48:15.268Z,7.93
2018-04-25T13:50:44.331Z,8.57
2018-04-25T13:53:13.061Z,9.50
2018-04-25T13:55:44.078Z,7.70
2018-04-25T13:58:13.252Z,11.17
2018-04-25T14:00:42.458Z,8.23
2018-04-25T14:03:11.587Z,9.20
2018-04-25T14:05:40.779Z,9.03
2018-04-25T14:08:09.851Z,7.90
2018-04-25T14:10:39.143Z,13.03
2018-04-25T14:13:08.287Z,8.70
2018-04-25T14:15:37.395Z,8.80
2018-04-25T14:18:08.090Z,9.13
2018-04-25T14:20:37.184Z,8.50
2018-04-25T14:23:06.420Z,9.57
2018-04-25T14:25:35.527Z,7.70
2018-04-25T14:28:04.474Z,7.83
2018-04-25T14:30:33.799Z,8.33
2018-04-25T14:33:03.166Z,10.23
2018-04-25T14:35:32.073Z,8.13
2018-04-25T14:38:01.116Z,8.50
2018-04-25T14:40:30.306Z,7.60
2018-04-25T14:42:59.342Z,7.33
2018-04-25T14:45:28.644Z,11.93
2018-04-25T14:47:58.525Z,7.97
2018-04-25T14:50:28.471Z,9.10
2018-04-25T14:52:57.621Z,11.03
2018-04-25T14:55:26.762Z,11.90
2018-04-25T14:57:56.677Z,8.80
2018-04-25T15:00:25.880Z,9.40
2018-04-25T15:02:54.822Z,13.00
2018-04-25T15:05:24.063Z,12.77
2018-04-25T15:07:53.154Z,9.60
2018-04-25T15:10:22.248Z,14.40
2018-04-25T15:12:52.104Z,12.63
2018-04-25T15:15:21.137Z,9.17
2018-04-25T15:17:50.176Z,9.13
2018-04-25T15:20:19.455Z,9.07
2018-04-25T15:22:49.286Z,11.20
2018-04-25T15:25:18.938Z,9.03
2018-04-25T15:27:48.786Z,8.57
2018-04-25T15:30:17.842Z,9.77
2018-04-25T15:32:47.328Z,9.27
2018-04-25T15:35:16.323Z,10.20
2018-04-25T15:37:46.140Z,8.40
2018-04-25T15:40:15.134Z,6.97
2018-04-25T15:42:44.284Z,6.37
2018-04-25T15:45:12.965Z,5.53
2018-04-25T15:47:42.174Z,5.00
2018-04-25T15:50:11.252Z,5.13
2018-04-25T15:52:40.337Z,5.37
2018-04-25T15:55:09.527Z,5.97
2018-04-25T15:57:39.540Z,5.33
2018-04-25T16:00:08.452Z,6.70
2018-04-25T16:02:37.634Z,7.80
2018-04-25T16:05:06.492Z,8.33
2018-04-25T16:07:35.857Z,11.63
2018-04-25T16:10:05.763Z,10.20
2018-04-25T16:12:35.787Z,11.60
2018-04-25T16:15:04.971Z,11.07
2018-04-25T16:17:34.240Z,13.70
2018-04-25T16:20:03.011Z,11.57
2018-04-25T16:22:32.150Z,10.67
2018-04-25T16:25:00.919Z,11.30
2018-04-25T16:27:30.157Z,11.90
2018-04-25T16:29:59.388Z,11.27
2018-04-25T16:32:29.165Z,11.60
2018-04-25T16:35:00.475Z,11.30
2018-04-25T16:37:29.494Z,10.87
2018-04-25T16:39:58.689Z,12.10
2018-04-25T16:42:27.869Z,11.60
2018-04-25T16:44:57.084Z,12.90
2018-04-25T16:47:26.105Z,12.40
2018-04-25T16:49:55.898Z,11.03
2018-04-25T16:52:25.944Z,12.10
2018-04-25T16:54:55.851Z,12.63
2018-04-25T16:57:25.687Z,12.27
2018-04-25T16:59:54.530Z,11.77
2018-04-25T17:02:24.105Z,12.37
2018-04-25T17:04:53.197Z,11.03
2018-04-25T17:07:23.003Z,11.80
2018-04-25T17:09:51.998Z,10.63
2018-04-25T17:12:22.100Z,11.97
2018-04-25T17:14:51.491Z,11.50
2018-04-25T17:17:24.841Z,11.37
2018-04-25T17:19:54.080Z,11.27
2018-04-25T17:22:23.210Z,15.13
2018-04-25T17:24:53.310Z,15.03
2018-04-25T17:27:22.477Z,11.77
2018-04-25T17:29:51.648Z,12.67
2018-04-25T17:32:20.668Z,14.60
2018-04-25T17:34:49.868Z,10.73
2018-04-25T17:37:19.070Z,11.83
2018-04-25T17:39:48.513Z,11.53
2018-04-25T17:42:17.790Z,12.43
2018-04-25T17:44:46.943Z,10.27
2018-04-25T17:47:16.245Z,10.43
2018-04-25T17:49:45.665Z,9.57
2018-04-25T17:52:14.405Z,10.17
2018-04-25T17:54:43.835Z,10.60
2018-04-25T17:57:13.820Z,9.90
2018-04-25T17:59:43.000Z,9.50
2018-04-25T18:02:12.749Z,10.90
2018-04-25T18:04:42.969Z,10.90
2018-04-25T18:07:12.009Z,9.47
2018-04-25T18:09:41.771Z,9.50
2018-04-25T18:12:11.058Z,11.97
2018-04-25T18:14:40.179Z,10.30
2018-04-25T18:17:08.943Z,10.70
2018-04-25T18:19:38.174Z,10.20
2018-04-25T18:22:12.724Z,11.07
2018-04-25T18:24:47.654Z,10.33
2018-04-25T18:27:22.211Z,11.50
2018-04-25T18:29:57.234Z,10.40
2018-04-25T18:32:31.885Z,14.50
2018-04-25T18:35:07.191Z,10.67
2018-04-25T18:37:41.896Z,12.67
2018-04-25T18:40:17.552Z,13.80
2018-04-25T18:42:52.083Z,12.80
2018-04-25T18:45:26.854Z,11.97
2018-04-25T18:47:56.531Z,11.23
2018-04-25T18:50:26.680Z,12.63
2018-04-25T18:53:01.730Z,11.80
2018-04-25T18:55:37.036Z,11.13
2018-04-25T18:58:11.659Z,10.93
2018-04-25T19:00:46.258Z,11.80
2018-04-25T19:03:21.656Z,9.83
2018-04-25T19:05:56.597Z,13.43
2018-04-25T19:08:31.261Z,11.80
2018-04-25T19:11:06.042Z,10.37
2018-04-25T19:13:40.758Z,12.23
2018-04-25T19:16:16.154Z,11.07
2018-04-25T19:18:50.835Z,12.10
2018-04-25T19:21:25.554Z,11.83
2018-04-25T19:24:02.013Z,11.10
2018-04-25T19:26:36.913Z,9.63
2018-04-25T19:29:12.565Z,8.30
2018-04-25T19:31:47.340Z,11.60
2018-04-25T19:34:22.057Z,9.83
2018-04-25T19:36:56.831Z,10.90
2018-04-25T19:39:26.187Z,9.07
2018-04-25T19:42:00.717Z,10.60
2018-04-25T19:44:30.055Z,10.43
2018-04-25T19:46:59.633Z,9.50
2018-04-25T19:49:28.674Z,12.93
2018-04-25T19:51:58.016Z,11.67
2018-04-25T19:54:28.666Z,8.90
2018-04-25T19:56:57.840Z,11.73
2018-04-25T19:59:30.343Z,11.53
2018-04-25T20:01:59.697Z,10.70
2018-04-25T20:04:28.662Z,9.17
2018-04-25T20:07:04.285Z,12.17
2018-04-25T20:09:39.001Z,9.67
2018-04-25T20:12:14.603Z,10.27
2018-04-25T20:14:49.347Z,10.30
2018-04-25T20:17:23.973Z,9.10
2018-04-25T20:19:58.584Z,11.60
2018-04-25T20:22:33.323Z,9.40
2018-04-25T20:25:02.385Z,9.60
2018-04-25T20:27:37.252Z,9.17
2018-04-25T20:30:11.998Z,15.30
2018-04-25T20:32:46.604Z,8.53
2018-04-25T20:35:21.967Z,8.10
2018-04-25T20:37:56.706Z,8.40
2018-04-25T20:40:31.329Z,7.70
2018-04-25T20:43:06.073Z,14.83
2018-04-25T20:45:41.563Z,7.30
2018-04-25T20:48:16.292Z,9.07
2018-04-25T20:50:51.194Z,8.53
2018-04-25T20:53:26.790Z,11.70
2018-04-25T20:56:01.554Z,11.90
2018-04-25T20:58:36.328Z,10.80
2018-04-25T21:01:11.784Z,14.40
2018-04-25T21:03:46.518Z,9.43
2018-04-25T21:06:21.288Z,8.63
2018-04-25T21:08:56.179Z,8.93
2018-04-25T21:11:30.864Z,8.53
2018-04-25T21:14:05.520Z,11.90
2018-04-25T21:16:40.170Z,8.73
2018-04-25T21:19:14.846Z,13.23
2018-04-25T21:21:49.425Z,9.63
2018-04-25T21:24:23.908Z,14.70
2018-04-25T21:26:58.260Z,13.70
2018-04-25T21:29:32.815Z,8.60
2018-04-25T21:32:08.263Z,9.30
2018-04-25T21:34:43.625Z,8.13
2018-04-25T21:37:18.305Z,6.80
2018-04-25T21:39:53.036Z,10.50
2018-04-25T21:42:27.702Z,12.83
2018-04-25T21:45:02.348Z,10.50
2018-04-25T21:47:37.168Z,6.40
2018-04-25T21:50:12.023Z,5.83
2018-04-25T21:52:46.776Z,5.63
2018-04-25T21:55:15.846Z,7.63
2018-04-25T21:57:50.398Z,5.43
2018-04-25T22:00:24.993Z,17.20
2018-04-25T22:02:59.803Z,11.80
2018-04-25T22:05:35.168Z,8.43
2018-04-25T22:08:10.543Z,6.60
2018-04-25T22:10:45.965Z,5.70
2018-04-25T22:13:21.302Z,5.90
2018-04-25T22:15:56.022Z,5.10
2018-04-25T22:18:30.590Z,9.63
2018-04-25T22:21:05.209Z,4.53
2018-04-25T22:23:39.931Z,7.27
2018-04-25T22:26:14.949Z,6.40
2018-04-25T22:28:49.657Z,6.93
2018-04-25T22:31:25.119Z,10.37
2018-04-25T22:33:59.780Z,7.33
2018-04-25T22:36:34.422Z,7.50
2018-04-25T22:39:09.393Z,6.93
2018-04-25T22:41:43.913Z,11.93
2018-04-25T22:44:19.267Z,9.10
2018-04-25T22:46:54.011Z,8.20
2018-04-25T22:49:28.908Z,10.07
2018-04-25T22:52:03.652Z,12.70
2018-04-25T22:54:39.211Z,6.90
2018-04-25T22:57:08.478Z,18.13
2018-04-25T22:59:43.452Z,11.33
2018-04-25T23:02:18.281Z,11.33
2018-04-25T23:04:52.981Z,9.23
2018-04-25T23:07:27.723Z,7.57
2018-04-25T23:10:02.578Z,10.87
2018-04-25T23:12:37.774Z,14.83
2018-04-25T23:15:12.312Z,22.40
2018-04-25T23:17:42.013Z,15.57
2018-04-25T23:20:17.366Z,13.50
2018-04-25T23:22:52.016Z,21.57
2018-04-25T23:25:26.810Z,12.67
2018-04-25T23:28:01.674Z,12.83
2018-04-25T23:30:36.760Z,9.17
2018-04-25T23:33:11.518Z,12.00
2018-04-25T23:35:47.098Z,8.10
2018-04-25T23:38:21.954Z,9.63
2018-04-25T23:40:56.633Z,7.47
2018-04-25T23:43:31.953Z,10.20
2018-04-25T23:46:06.527Z,8.30
2018-04-25T23:48:41.256Z,11.60
2018-04-25T23:51:16.015Z,10.10
2018-04-25T23:53:50.802Z,8.90
2018-04-25T23:56:24.934Z,12.30
2018-04-25T23:58:59.879Z,12.20
